createdAt,value
2023-04-02T00:01:02.682Z,8.34
2023-04-02T00:03:45.317Z,8.22
2023-04-02T00:06:30.918Z,8.38
2023-04-02T00:09:14.868Z,8.10
2023-04-02T00:11:50.939Z,8.11
2023-04-02T00:14:36.902Z,8.53
2023-04-02T00:17:10.490Z,8.73
2023-04-02T00:19:53.734Z,8.78
2023-04-02T00:22:25.808Z,8.60
2023-04-02T00:24:55.387Z,8.48
2023-04-02T00:27:22.804Z,8.42
2023-04-02T00:29:54.609Z,8.48
2023-04-02T00:32:29.512Z,8.23
2023-04-02T00:34:58.015Z,8.36
2023-04-02T00:37:28.830Z,7.82
2023-04-02T00:40:02.605Z,8.21
2023-04-02T00:42:31.721Z,8.17
2023-04-02T00:44:59.107Z,8.15
2023-04-02T00:47:37.101Z,8.10
2023-04-02T00:50:24.888Z,8.06
2023-04-02T00:52:55.036Z,8.17
2023-04-02T00:55:34.585Z,7.81
2023-04-02T00:58:03.544Z,8.07
2023-04-02T01:00:35.637Z,7.70
2023-04-02T01:03:18.251Z,8.09
2023-04-02T01:05:57.038Z,7.90
2023-04-02T01:08:59.740Z,8.09
2023-04-02T01:11:57.275Z,8.11
2023-04-02T01:14:50.497Z,7.88
2023-04-02T01:17:38.749Z,7.80
2023-04-02T01:20:37.374Z,7.82
2023-04-02T01:23:13.532Z,7.99
2023-04-02T01:26:33.670Z,7.61
2023-04-02T01:29:07.884Z,7.42
2023-04-02T01:31:36.024Z,7.77
2023-04-02T01:34:04.487Z,7.88
2023-04-02T01:36:43.861Z,8.20
2023-04-02T01:40:06.083Z,8.23
2023-04-02T01:43:06.342Z,8.27
2023-04-02T01:45:37.526Z,7.93
2023-04-02T01:48:20.132Z,8.38
2023-04-02T01:51:14.416Z,8.21
2023-04-02T01:53:50.100Z,8.12
2023-04-02T01:56:18.136Z,8.34
2023-04-02T01:58:46.423Z,7.87
2023-04-02T02:01:27.525Z,8.19
2023-04-02T02:03:54.810Z,7.91
2023-04-02T02:06:23.234Z,8.03
2023-04-02T02:08:55.113Z,7.81
2023-04-02T02:11:30.708Z,7.89
2023-04-02T02:14:19.554Z,7.99
2023-04-02T02:16:48.720Z,8.67
2023-04-02T02:19:54.420Z,8.10
2023-04-02T02:22:32.025Z,8.08
2023-04-02T02:25:08.602Z,8.16
2023-04-02T02:28:23.705Z,8.47
2023-04-02T02:30:59.559Z,8.22
2023-04-02T02:33:37.580Z,8.09
2023-04-02T02:36:08.043Z,8.05
2023-04-02T02:38:34.732Z,8.14
2023-04-02T02:41:15.524Z,8.10
2023-04-02T02:44:01.407Z,7.91
2023-04-02T02:46:30.798Z,8.06
2023-04-02T02:48:59.982Z,8.01
2023-04-02T02:51:42.601Z,8.11
2023-04-02T02:54:09.839Z,7.94
2023-04-02T02:56:42.326Z,7.96
2023-04-02T02:59:11.674Z,7.73
2023-04-02T03:01:38.721Z,8.07
2023-04-02T03:04:06.172Z,8.09
2023-04-02T03:06:33.572Z,7.94
2023-04-02T03:09:23.787Z,7.68
2023-04-02T03:12:01.049Z,7.39
2023-04-02T03:15:44.356Z,7.66
2023-04-02T03:18:46.731Z,7.41
2023-04-02T03:21:26.346Z,7.54
2023-04-02T03:24:10.084Z,7.77
2023-04-02T03:26:44.324Z,7.69
2023-04-02T03:29:27.736Z,7.68
2023-04-02T03:31:59.809Z,7.31
2023-04-02T03:34:41.316Z,7.24
2023-04-02T03:37:41.292Z,7.20
2023-04-02T03:40:43.751Z,7.56
2023-04-02T03:43:18.644Z,7.63
2023-04-02T03:45:51.815Z,7.43
2023-04-02T03:48:18.702Z,7.32
2023-04-02T03:51:07.062Z,7.44
2023-04-02T03:53:34.358Z,7.52
2023-04-02T03:56:02.586Z,7.35
2023-04-02T03:58:44.622Z,7.29
2023-04-02T04:01:37.580Z,7.62
2023-04-02T04:04:14.615Z,7.53
2023-04-02T04:06:47.286Z,7.46
2023-04-02T04:09:30.977Z,7.81
2023-04-02T04:12:12.832Z,7.82
2023-04-02T04:14:45.816Z,7.37
2023-04-02T04:17:30.054Z,6.92
2023-04-02T04:20:15.300Z,6.76
2023-04-02T04:22:42.190Z,6.96
2023-04-02T04:25:22.865Z,7.12
2023-04-02T04:28:16.744Z,6.83
2023-04-02T04:30:53.550Z,6.79
2023-04-02T04:33:39.992Z,7.08
2023-04-02T04:36:22.233Z,7.29
2023-04-02T04:38:55.902Z,7.18
2023-04-02T04:41:34.155Z,7.52
2023-04-02T04:44:14.226Z,7.03
2023-04-02T04:46:59.094Z,6.90
2023-04-02T04:49:50.870Z,7.15
2023-04-02T04:52:25.407Z,6.37
2023-04-02T04:54:52.954Z,6.86
2023-04-02T04:57:34.915Z,7.94
2023-04-02T05:00:34.644Z,7.08
2023-04-02T05:03:17.494Z,7.20
2023-04-02T05:05:45.147Z,7.19
2023-04-02T05:08:21.348Z,7.33
2023-04-02T05:11:24.091Z,7.65
2023-04-02T05:13:57.117Z,7.36
2023-04-02T05:16:54.766Z,7.14
2023-04-02T05:19:46.655Z,7.73
2023-04-02T05:22:28.262Z,7.66
2023-04-02T05:25:19.189Z,7.32
2023-04-02T05:27:59.392Z,7.69
2023-04-02T05:30:29.728Z,7.78
2023-04-02T05:33:05.408Z,7.78
2023-04-02T05:35:37.122Z,7.93
2023-04-02T05:38:06.731Z,8.05
2023-04-02T05:40:42.051Z,8.04
2023-04-02T05:43:18.233Z,8.23
2023-04-02T05:45:53.463Z,7.81
2023-04-02T05:48:33.211Z,7.60
2023-04-02T05:51:00.934Z,7.82
2023-04-02T05:53:38.101Z,7.91
2023-04-02T05:56:17.956Z,7.97
2023-04-02T05:59:00.825Z,8.06
2023-04-02T06:01:30.949Z,8.26
2023-04-02T06:04:08.761Z,8.43
2023-04-02T06:06:42.196Z,8.35
2023-04-02T06:09:20.899Z,8.33
2023-04-02T06:11:54.432Z,8.49
2023-04-02T06:14:23.583Z,8.90
2023-04-02T06:16:51.138Z,8.99
2023-04-02T06:19:30.813Z,9.30
2023-04-02T06:22:10.797Z,9.49
2023-04-02T06:24:45.801Z,9.03
2023-04-02T06:27:19.098Z,9.98
2023-04-02T06:29:53.417Z,9.63
2023-04-02T06:32:25.840Z,9.99
2023-04-02T06:35:05.646Z,11.01
2023-04-02T06:37:39.416Z,10.34
2023-04-02T06:40:25.232Z,10.25
2023-04-02T06:43:00.284Z,11.55
2023-04-02T06:45:35.047Z,12.19
2023-04-02T06:48:05.238Z,12.67
2023-04-02T06:50:36.376Z,12.40
2023-04-02T06:53:14.661Z,12.27
2023-04-02T06:56:05.106Z,12.95
2023-04-02T06:58:32.087Z,13.59
2023-04-02T07:00:58.878Z,14.79
2023-04-02T07:03:28.694Z,14.65
2023-04-02T07:05:56.803Z,14.66
2023-04-02T07:08:24.072Z,13.96
2023-04-02T07:10:51.303Z,15.17
2023-04-02T07:13:21.753Z,14.50
2023-04-02T07:15:55.624Z,13.41
2023-04-02T07:18:27.227Z,14.47
2023-04-02T07:20:54.141Z,14.20
2023-04-02T07:23:21.305Z,15.01
2023-04-02T07:28:38.692Z,13.87
2023-04-02T07:31:17.019Z,13.95
2023-04-02T07:33:44.267Z,14.42
2023-04-02T07:36:23.991Z,13.65
2023-04-02T07:38:53.097Z,13.68
2023-04-02T07:41:22.948Z,14.50
2023-04-02T07:43:50.691Z,12.98
2023-04-02T07:51:26.767Z,14.35
2023-04-02T07:53:59.686Z,14.41
2023-04-02T07:56:27.392Z,14.74
2023-04-02T07:58:54.948Z,14.85
2023-04-02T08:01:25.952Z,15.14
2023-04-02T08:03:54.936Z,14.73
2023-04-02T08:06:32.071Z,14.91
2023-04-02T08:09:21.806Z,14.98
2023-04-02T08:11:50.449Z,15.42
2023-04-02T08:14:17.395Z,15.36
2023-04-02T08:16:56.199Z,15.38
2023-04-02T08:19:23.307Z,15.43
2023-04-02T08:21:51.963Z,15.38
2023-04-02T08:24:20.456Z,15.81
2023-04-02T08:26:49.071Z,15.79
2023-04-02T08:29:16.457Z,16.22
2023-04-02T08:31:43.478Z,16.75
2023-04-02T08:34:10.809Z,16.20
2023-04-02T08:36:40.099Z,17.44
2023-04-02T08:39:12.040Z,16.63
2023-04-02T08:41:50.486Z,16.14
2023-04-02T08:44:45.845Z,15.52
2023-04-02T08:47:15.734Z,17.03
2023-04-02T08:49:55.236Z,17.46
2023-04-02T08:52:28.604Z,17.77
2023-04-02T08:54:58.264Z,16.38
2023-04-02T08:57:43.389Z,17.29
2023-04-02T09:00:26.116Z,17.67
2023-04-02T09:02:57.717Z,17.98
2023-04-02T09:05:30.293Z,17.07
2023-04-02T09:08:01.589Z,17.03
2023-04-02T09:10:44.734Z,17.55
2023-04-02T09:14:08.818Z,18.18
2023-04-02T09:16:49.685Z,17.51
2023-04-02T09:19:24.405Z,17.59
2023-04-02T09:22:09.909Z,17.89
2023-04-02T09:24:37.822Z,18.41
2023-04-02T09:27:17.639Z,18.35
2023-04-02T09:29:48.833Z,18.41
2023-04-02T09:32:38.174Z,18.27
2023-04-02T09:35:26.172Z,18.17
2023-04-02T09:38:30.900Z,18.48
2023-04-02T09:41:06.781Z,17.29
2023-04-02T09:43:39.340Z,17.11
2023-04-02T09:46:22.798Z,18.09
2023-04-02T09:49:01.790Z,17.31
2023-04-02T09:51:33.345Z,18.51
2023-04-02T09:54:06.135Z,18.68
2023-04-02T09:56:37.567Z,17.83
2023-04-02T09:59:07.815Z,18.78
2023-04-02T10:01:37.475Z,19.38
2023-04-02T10:04:06.704Z,19.35
2023-04-02T10:06:35.672Z,19.04
2023-04-02T10:12:36.794Z,18.38
2023-04-02T10:15:06.379Z,18.45
2023-04-02T10:17:37.860Z,18.60
2023-04-02T10:20:26.353Z,18.69
2023-04-02T10:22:53.181Z,19.40
2023-04-02T10:25:24.480Z,19.56
2023-04-02T10:28:17.595Z,18.88
2023-04-02T10:31:29.839Z,18.26
2023-04-02T10:34:04.106Z,18.36
2023-04-02T10:36:51.105Z,18.36
2023-04-02T10:39:35.997Z,18.91
2023-04-02T10:42:30.527Z,19.08
2023-04-02T10:45:16.947Z,18.89
2023-04-02T10:48:00.199Z,19.32
2023-04-02T10:51:01.228Z,19.52
2023-04-02T10:53:42.714Z,19.12
2023-04-02T10:56:13.426Z,19.42
2023-04-02T10:58:58.478Z,19.57
2023-04-02T11:01:31.622Z,19.63
2023-04-02T11:04:06.953Z,19.58
2023-04-02T11:06:42.308Z,20.11
2023-04-02T11:09:18.537Z,20.04
2023-04-02T11:11:49.561Z,19.40
2023-04-02T11:14:21.207Z,20.03
2023-04-02T11:16:53.521Z,19.95
2023-04-02T11:19:31.426Z,18.59
2023-04-02T11:22:24.698Z,19.61
2023-04-02T11:24:54.646Z,19.75
2023-04-02T11:27:27.202Z,20.20
2023-04-02T11:30:27.286Z,20.08
2023-04-02T11:33:39.053Z,19.92
2023-04-02T11:36:44.356Z,19.98
2023-04-02T11:39:17.397Z,19.98
2023-04-02T11:41:59.398Z,20.45
2023-04-02T11:44:26.972Z,20.32
2023-04-02T11:47:19.443Z,20.34
2023-04-02T11:49:55.532Z,20.16
2023-04-02T11:52:46.169Z,20.54
2023-04-02T11:55:28.628Z,20.61
2023-04-02T11:58:11.165Z,20.45
2023-04-02T12:01:03.367Z,20.53
2023-04-02T12:04:07.885Z,20.46
2023-04-02T12:06:50.285Z,19.83
2023-04-02T12:09:23.984Z,19.63
2023-04-02T12:12:15.267Z,19.35
2023-04-02T12:14:49.677Z,19.49
2023-04-02T12:17:52.147Z,19.27
2023-04-02T12:20:22.781Z,19.18
2023-04-02T12:22:59.335Z,19.19
2023-04-02T12:25:33.752Z,18.93
2023-04-02T12:28:10.271Z,18.97
2023-04-02T12:30:38.773Z,18.83
2023-04-02T12:33:24.751Z,18.93
2023-04-02T12:35:57.962Z,19.29
2023-04-02T12:38:42.278Z,19.10
2023-04-02T12:41:30.535Z,18.94
2023-04-02T12:44:06.611Z,19.23
2023-04-02T12:46:35.899Z,18.79
2023-04-02T12:49:39.720Z,19.11
2023-04-02T12:52:12.077Z,19.02
2023-04-02T12:54:45.880Z,18.92
2023-04-02T12:57:29.049Z,18.73
2023-04-02T13:00:00.004Z,18.66
2023-04-02T13:02:34.567Z,18.33
2023-04-02T13:05:20.069Z,18.62
2023-04-02T13:07:52.694Z,18.62
2023-04-02T13:10:28.278Z,18.38
2023-04-02T13:13:16.702Z,19.02
2023-04-02T13:15:45.155Z,18.80
2023-04-02T13:18:21.174Z,18.53
2023-04-02T13:21:00.986Z,18.69
2023-04-02T13:23:30.836Z,18.46
2023-04-02T13:26:00.461Z,18.64
2023-04-02T13:28:28.705Z,18.52
2023-04-02T13:30:55.761Z,18.80
2023-04-02T13:33:22.722Z,18.56
2023-04-02T13:35:49.706Z,18.51
2023-04-02T13:38:16.691Z,18.72
2023-04-02T13:40:43.568Z,18.37
2023-04-02T13:43:17.777Z,18.47
2023-04-02T13:45:49.306Z,18.23
2023-04-02T13:48:18.401Z,17.83
2023-04-02T13:50:46.541Z,18.09
2023-04-02T13:53:22.464Z,18.17
2023-04-02T13:55:49.742Z,18.26
2023-04-02T14:03:43.981Z,18.53
2023-04-02T14:06:22.658Z,18.12
2023-04-02T14:09:09.056Z,17.98
2023-04-02T14:12:03.772Z,18.39
2023-04-02T14:15:19.695Z,18.33
2023-04-02T14:18:03.271Z,18.26
2023-04-02T14:20:42.378Z,18.24
2023-04-02T14:23:15.383Z,17.99
2023-04-02T14:25:42.099Z,17.89
2023-04-02T14:28:38.278Z,18.11
2023-04-02T14:31:20.880Z,18.31
2023-04-02T14:34:17.472Z,18.26
2023-04-02T14:37:18.205Z,18.38
2023-04-02T14:40:58.991Z,18.30
2023-04-02T14:43:34.344Z,18.46
2023-04-02T14:46:07.414Z,18.37
2023-04-02T14:48:57.476Z,18.71
2023-04-02T14:51:31.416Z,18.45
2023-04-02T14:54:13.600Z,18.45
2023-04-02T14:56:49.563Z,18.42
2023-04-02T14:59:44.170Z,18.29
2023-04-02T15:02:26.302Z,18.21
2023-04-02T15:05:01.379Z,17.95
2023-04-02T15:07:38.464Z,18.11
2023-04-02T15:10:40.646Z,18.19
2023-04-02T15:13:20.633Z,18.14
2023-04-02T15:15:58.871Z,17.82
2023-04-02T15:18:29.667Z,18.03
2023-04-02T15:21:23.243Z,18.17
2023-04-02T15:24:04.858Z,18.31
2023-04-02T15:27:24.066Z,18.24
2023-04-02T15:30:28.852Z,18.12
2023-04-02T15:33:17.457Z,18.14
2023-04-02T15:36:23.151Z,18.02
2023-04-02T15:39:07.877Z,18.09
2023-04-02T15:42:00.064Z,18.01
2023-04-02T15:44:27.077Z,18.22
2023-04-02T15:47:08.342Z,18.17
2023-04-02T15:50:09.146Z,18.02
2023-04-02T15:52:54.842Z,17.84
2023-04-02T15:55:40.240Z,17.92
2023-04-02T15:58:37.291Z,17.94
2023-04-02T16:01:29.438Z,17.87
2023-04-02T16:04:30.165Z,17.82
2023-04-02T16:06:57.478Z,17.76
2023-04-02T16:09:38.322Z,17.70
2023-04-02T16:12:41.147Z,17.67
2023-04-02T16:16:00.720Z,17.63
2023-04-02T16:18:40.828Z,17.69
2023-04-02T16:21:08.389Z,17.63
2023-04-02T16:23:38.241Z,17.55
2023-04-02T16:26:35.680Z,17.59
2023-04-02T16:29:09.711Z,17.34
2023-04-02T16:31:46.770Z,16.83
2023-04-02T16:34:27.828Z,16.91
2023-04-02T16:37:06.649Z,16.47
2023-04-02T16:39:42.659Z,16.74
2023-04-02T16:42:25.035Z,16.33
2023-04-02T16:44:51.853Z,16.21
2023-04-02T16:47:47.788Z,16.05
2023-04-02T16:50:19.959Z,16.08
2023-04-02T16:53:07.449Z,15.78
2023-04-02T16:56:31.945Z,15.66
2023-04-02T16:59:18.445Z,15.35
2023-04-02T17:01:55.389Z,15.24
2023-04-02T17:04:46.571Z,15.26
2023-04-02T17:07:23.238Z,14.95
2023-04-02T17:10:24.956Z,14.81
2023-04-02T17:13:30.084Z,14.65
2023-04-02T17:16:33.371Z,14.68
2023-04-02T17:21:49.372Z,14.44
2023-04-02T17:24:31.141Z,14.52
2023-04-02T17:27:14.379Z,14.09
2023-04-02T17:29:45.516Z,14.15
2023-04-02T17:32:23.239Z,14.31
2023-04-02T17:34:50.411Z,14.37
2023-04-02T17:37:28.303Z,14.23
2023-04-02T17:40:18.073Z,14.09
2023-04-02T17:43:05.531Z,14.25
2023-04-02T17:45:52.985Z,14.03
2023-04-02T17:48:45.352Z,14.42
2023-04-02T17:51:30.399Z,13.91
2023-04-02T17:54:34.917Z,13.93
2023-04-02T17:57:26.682Z,14.18
2023-04-02T18:00:21.655Z,13.83
2023-04-02T18:03:22.413Z,13.55
2023-04-02T18:05:59.237Z,14.01
2023-04-02T18:08:43.799Z,13.52
2023-04-02T18:11:20.901Z,13.77
2023-04-02T18:14:00.473Z,13.96
2023-04-02T18:17:01.033Z,14.23
2023-04-02T18:19:49.975Z,14.02
2023-04-02T18:22:37.732Z,13.85
2023-04-02T18:25:29.268Z,13.81
2023-04-02T18:28:28.550Z,13.98
2023-04-02T18:31:12.563Z,13.63
2023-04-02T18:33:59.619Z,14.02
2023-04-02T18:36:47.625Z,13.36
2023-04-02T18:39:26.736Z,13.71
2023-04-02T18:42:35.695Z,13.26
2023-04-02T18:45:25.453Z,13.23
2023-04-02T18:48:15.846Z,13.25
2023-04-02T18:50:47.126Z,13.25
2023-04-02T18:53:19.617Z,12.78
2023-04-02T18:56:01.815Z,13.31
2023-04-02T18:58:50.149Z,13.10
2023-04-02T19:01:28.654Z,12.80
2023-04-02T19:04:02.680Z,13.06
2023-04-02T19:06:37.667Z,12.82
2023-04-02T19:09:19.241Z,12.98
2023-04-02T19:11:48.403Z,12.77
2023-04-02T19:14:20.139Z,13.09
2023-04-02T19:17:06.401Z,12.74
2023-04-02T19:19:47.028Z,12.66
2023-04-02T19:22:30.667Z,12.75
2023-04-02T19:25:18.453Z,12.59
2023-04-02T19:28:03.987Z,13.18
2023-04-02T19:30:53.045Z,12.62
2023-04-02T19:33:19.929Z,12.57
2023-04-02T19:35:59.171Z,12.26
2023-04-02T19:39:06.280Z,12.20
2023-04-02T19:41:54.284Z,12.02
2023-04-02T19:44:22.484Z,12.15
2023-04-02T19:46:51.986Z,12.02
2023-04-02T19:49:27.166Z,11.84
2023-04-02T19:51:55.257Z,11.76
2023-04-02T19:54:23.473Z,11.81
2023-04-02T19:56:51.078Z,11.89
2023-04-02T19:59:18.873Z,12.16
2023-04-02T20:01:46.673Z,11.84
2023-04-02T20:04:14.570Z,11.51
2023-04-02T20:06:41.497Z,11.35
2023-04-02T20:09:08.871Z,11.64
2023-04-02T20:11:37.785Z,11.83
2023-04-02T20:14:07.929Z,11.49
2023-04-02T20:16:36.909Z,12.02
2023-04-02T20:19:04.895Z,11.27
2023-04-02T20:21:38.435Z,11.53
2023-04-02T20:24:07.504Z,11.87
2023-04-02T20:26:35.978Z,11.66
2023-04-02T20:29:06.450Z,11.99
2023-04-02T20:31:35.226Z,11.91
2023-04-02T20:34:06.292Z,11.50
2023-04-02T20:36:33.308Z,11.82
2023-04-02T20:39:00.843Z,11.52
2023-04-02T20:41:40.311Z,11.54
2023-04-02T20:44:07.455Z,11.34
2023-04-02T20:46:34.406Z,11.01
2023-04-02T20:49:02.592Z,11.05
2023-04-02T20:51:29.975Z,10.95
2023-04-02T20:53:57.969Z,10.60
2023-04-02T20:56:25.317Z,10.88
2023-04-02T20:58:52.495Z,11.29
2023-04-02T21:01:27.976Z,10.80
2023-04-02T21:03:57.803Z,10.79
2023-04-02T21:06:27.911Z,10.50
2023-04-02T21:08:54.849Z,11.04
2023-04-02T21:11:22.588Z,11.08
2023-04-02T21:13:49.978Z,10.73
2023-04-02T21:16:25.645Z,10.62
2023-04-02T21:18:55.208Z,10.72
2023-04-02T21:21:22.946Z,10.60
2023-04-02T21:23:56.266Z,11.02
2023-04-02T21:26:24.037Z,10.36
2023-04-02T21:28:50.696Z,10.88
2023-04-02T21:31:22.899Z,10.85
2023-04-02T21:33:52.457Z,10.68
2023-04-02T21:36:21.889Z,10.59
2023-04-02T21:38:54.724Z,10.73
2023-04-02T21:41:23.405Z,10.32
2023-04-02T21:43:50.873Z,10.80
2023-04-02T21:46:22.840Z,10.64
2023-04-02T21:48:55.860Z,10.43
2023-04-02T21:51:53.315Z,10.11
2023-04-02T21:54:25.704Z,10.42
2023-04-02T21:56:53.456Z,10.23
2023-04-02T21:59:32.652Z,10.56
2023-04-02T22:02:01.973Z,10.85
2023-04-02T22:04:30.759Z,10.62
2023-04-02T22:06:58.007Z,10.15
2023-04-02T22:09:26.934Z,10.25
2023-04-02T22:11:59.190Z,10.23
2023-04-02T22:14:26.604Z,10.03
2023-04-02T22:16:58.497Z,10.12
2023-04-02T22:19:38.462Z,9.84
2023-04-02T22:22:05.500Z,10.12
2023-04-02T22:24:32.544Z,10.21
2023-04-02T22:26:59.905Z,9.86
2023-04-02T22:29:26.831Z,10.09
2023-04-02T22:31:53.762Z,9.74
2023-04-02T22:34:21.336Z,9.58
2023-04-02T22:36:48.373Z,9.66
2023-04-02T22:39:17.134Z,9.63
2023-04-02T22:41:45.796Z,9.52
2023-04-02T22:46:56.928Z,9.26
2023-04-02T22:49:23.798Z,9.27
2023-04-02T22:51:50.627Z,9.64
2023-04-02T22:54:26.564Z,9.42
2023-04-02T22:56:58.195Z,9.82
2023-04-02T23:02:27.281Z,9.50
2023-04-02T23:05:08.231Z,9.92
2023-04-02T23:07:46.800Z,10.06
2023-04-02T23:10:16.910Z,9.69
2023-04-02T23:12:43.669Z,9.70
2023-04-02T23:15:11.845Z,9.45
2023-04-02T23:17:39.068Z,9.48
2023-04-02T23:20:07.239Z,9.05
2023-04-02T23:22:37.966Z,9.61
2023-04-02T23:25:10.016Z,8.95
2023-04-02T23:27:37.123Z,9.36
2023-04-02T23:30:15.854Z,9.07
2023-04-02T23:32:43.011Z,9.43
2023-04-02T23:35:10.140Z,9.28
2023-04-02T23:37:37.473Z,8.84
2023-04-02T23:40:04.754Z,8.92
2023-04-02T23:42:31.478Z,9.04
2023-04-02T23:44:58.563Z,8.88
2023-04-02T23:47:34.596Z,8.84
2023-04-02T23:50:02.269Z,8.28
2023-04-02T23:52:45.320Z,8.66
2023-04-02T23:55:46.029Z,8.64
2023-04-02T23:58:25.791Z,8.78
